Time;durP1;ratioP1;P1;durP2;ratioP2;P2;SDS_P1;SDS_P2;PMS_P1;PMS_P2;Temp;Humidity;BMP_temperature;BMP_pressure;BME280_temperature;BME280_humidity;BME280_pressure;Samples;Min_cycle;Max_cycle;Signal;HPM_P1;HPM_P2
2023/11/09 00:03:50;;;;;;;2.30;0.73;;;16.00;75.60;;;;;;10414356;28;20029;-59
2023/11/09 00:08:51;;;;;;;4.20;0.88;;;16.00;75.80;;;;;;10414560;28;20555;-59
2023/11/09 00:13:51;;;;;;;1.55;0.77;;;16.00;75.70;;;;;;10413233;28;20025;-59
2023/11/09 00:18:52;;;;;;;3.33;1.30;;;16.00;75.60;;;;;;10413778;28;20033;-59
2023/11/09 00:23:53;;;;;;;1.90;0.90;;;16.00;75.70;;;;;;10413624;28;20030;-59
2023/11/09 00:28:53;;;;;;;1.48;0.60;;;16.00;75.70;;;;;;10413505;28;20733;-59
2023/11/09 00:33:54;;;;;;;4.65;0.95;;;16.00;75.80;;;;;;10413410;28;20372;-59
2023/11/09 00:38:55;;;;;;;4.15;0.85;;;16.00;75.80;;;;;;10413526;28;20654;-59
2023/11/09 00:43:56;;;;;;;2.60;1.30;;;16.00;75.80;;;;;;10412663;28;20175;-58
2023/11/09 00:48:57;;;;;;;3.47;1.00;;;16.00;75.80;;;;;;10412918;28;20115;-58
2023/11/09 00:53:58;;;;;;;2.10;0.93;;;16.00;75.90;;;;;;10412259;28;20029;-58
2023/11/09 00:58:58;;;;;;;2.65;0.88;;;15.90;75.60;;;;;;10412692;28;20063;-59
2023/11/09 01:03:59;;;;;;;1.75;0.73;;;16.00;75.90;;;;;;10412276;28;20037;-59
2023/11/09 01:09:00;;;;;;;2.10;0.70;;;15.90;75.80;;;;;;10411833;28;20151;-59
2023/11/09 01:14:01;;;;;;;2.80;0.80;;;15.90;75.80;;;;;;10412031;28;20848;-59
2023/11/09 01:19:02;;;;;;;3.20;1.55;;;15.90;75.90;;;;;;10412009;28;20473;-58
2023/11/09 01:24:03;;;;;;;1.73;0.68;;;15.90;75.80;;;;;;10410388;28;20026;-57
2023/11/09 01:29:05;;;;;;;1.27;0.70;;;15.90;75.90;;;;;;10411325;28;20056;-58
2023/11/09 01:34:06;;;;;;;1.85;0.55;;;15.90;75.90;;;;;;10410689;28;20036;-59
2023/11/09 01:39:06;;;;;;;1.17;0.70;;;15.90;75.90;;;;;;10410932;28;20033;-59
2023/11/09 01:44:07;;;;;;;2.40;0.60;;;15.90;75.90;;;;;;10410466;28;20025;-59
2023/11/09 01:49:11;;;;;;;2.83;0.65;;;15.90;75.90;;;;;;10410371;28;20112;-59
2023/11/09 01:54:12;;;;;;;3.80;0.90;;;15.90;75.90;;;;;;10410141;28;20026;-59
2023/11/09 01:59:16;;;;;;;2.90;0.85;;;16.00;76.70;;;;;;10410482;28;20199;-59
2023/11/09 02:04:16;;;;;;;1.08;0.45;;;16.00;79.70;;;;;;10408648;28;20040;-58
2023/11/09 02:09:17;;;;;;;1.67;0.80;;;16.00;78.80;;;;;;10408059;28;20037;-59
2023/11/09 02:14:19;;;;;;;1.63;0.35;;;16.10;78.40;;;;;;10408155;28;20465;-58
2023/11/09 02:19:20;;;;;;;1.45;0.60;;;16.10;78.10;;;;;;10409568;28;20688;-58
2023/11/09 02:24:21;;;;;;;1.83;0.55;;;16.10;78.00;;;;;;10408962;28;20029;-58
2023/11/09 02:29:22;;;;;;;1.35;0.50;;;16.00;77.90;;;;;;10407500;28;20060;-58
2023/11/09 02:34:23;;;;;;;0.80;0.52;;;16.00;77.80;;;;;;10408943;28;20116;-59
2023/11/09 02:39:24;;;;;;;0.95;0.40;;;16.00;77.80;;;;;;10409329;28;20461;-59
2023/11/09 02:44:25;;;;;;;1.55;0.50;;;16.00;77.70;;;;;;10408577;28;20029;-58
2023/11/09 02:49:25;;;;;;;0.98;0.60;;;16.00;78.20;;;;;;10408646;28;20026;-58
2023/11/09 02:54:26;;;;;;;1.00;0.43;;;16.00;77.60;;;;;;10408595;28;20283;-58
2023/11/09 02:59:27;;;;;;;1.10;0.70;;;16.00;77.60;;;;;;10408779;28;20029;-58
2023/11/09 03:04:28;;;;;;;1.33;0.60;;;15.90;77.50;;;;;;10408654;28;20028;-58
2023/11/09 03:09:28;;;;;;;1.35;0.70;;;15.90;77.40;;;;;;10407851;28;20033;-58
2023/11/09 03:14:29;;;;;;;1.08;0.40;;;15.90;77.40;;;;;;10408107;28;20022;-58
2023/11/09 03:19:30;;;;;;;2.20;0.73;;;15.90;77.40;;;;;;10408567;28;20037;-59
2023/11/09 03:24:33;;;;;;;1.10;0.57;;;15.90;77.40;;;;;;10407469;28;20051;-58
2023/11/09 03:29:34;;;;;;;1.58;0.50;;;15.90;77.40;;;;;;10408306;28;20041;-58
2023/11/09 03:34:35;;;;;;;0.85;0.50;;;15.90;77.40;;;;;;10407899;28;20039;-59
2023/11/09 03:39:35;;;;;;;2.17;0.65;;;15.90;77.30;;;;;;10407884;28;20026;-58
2023/11/09 03:44:38;;;;;;;1.35;0.73;;;15.90;77.30;;;;;;10407577;28;20040;-59
2023/11/09 03:49:43;;;;;;;0.50;0.40;;;15.90;77.20;;;;;;10411827;28;20044;-58
2023/11/09 03:54:43;;;;;;;1.30;0.63;;;15.90;77.20;;;;;;10414649;28;20061;-58
2023/11/09 03:59:44;;;;;;;1.30;0.50;;;15.90;77.20;;;;;;10415026;28;20040;-59
2023/11/09 04:04:46;;;;;;;2.67;0.73;;;15.80;77.10;;;;;;10414122;28;20033;-58
2023/11/09 04:09:47;;;;;;;0.82;0.40;;;15.80;77.20;;;;;;10414376;28;20671;-59
2023/11/09 04:14:48;;;;;;;1.40;0.50;;;15.80;77.10;;;;;;10413827;28;20030;-59
2023/11/09 04:19:49;;;;;;;0.95;0.50;;;15.90;77.20;;;;;;10413897;28;20119;-59
2023/11/09 04:24:50;;;;;;;0.75;0.38;;;15.80;77.10;;;;;;10413554;28;20090;-58
2023/11/09 04:29:50;;;;;;;1.05;0.50;;;15.80;77.10;;;;;;10457514;28;20504;-58
2023/11/09 04:34:51;;;;;;;1.40;0.40;;;15.80;77.10;;;;;;10421890;28;20026;-58
2023/11/09 04:39:57;;;;;;;1.55;0.50;;;15.80;77.10;;;;;;10415847;28;20029;-59
2023/11/09 04:45:00;;;;;;;0.80;0.40;;;15.80;77.10;;;;;;10413195;28;20037;-58
2023/11/09 04:50:05;;;;;;;1.75;0.47;;;15.80;77.10;;;;;;10415434;28;20065;-58
2023/11/09 04:55:19;;;;;;;1.00;0.45;;;15.90;77.20;;;;;;10411570;28;20069;-59
2023/11/09 05:10:58;;;;;;;2.57;0.87;;;16.00;77.10;;;;;;10408621;28;20045;-58
2023/11/09 05:16:35;;;;;;;1.77;0.40;;;16.10;76.90;;;;;;10412878;28;20033;-58
2023/11/09 05:21:37;;;;;;;0.80;0.40;;;16.00;77.00;;;;;;10399785;28;20073;-57
2023/11/09 05:26:38;;;;;;;1.05;0.40;;;16.00;77.10;;;;;;10408251;28;20033;-57
2023/11/09 05:31:42;;;;;;;0.80;0.40;;;15.90;77.70;;;;;;10407094;28;20060;-56
2023/11/09 05:36:43;;;;;;;0.88;0.40;;;15.90;77.10;;;;;;10407609;28;20263;-57
2023/11/09 05:41:44;;;;;;;0.68;0.30;;;15.90;77.10;;;;;;10407747;28;20400;-57
2023/11/09 05:46:45;;;;;;;0.75;0.30;;;16.00;76.70;;;;;;10407535;28;20057;-57
2023/11/09 05:51:47;;;;;;;3.35;0.50;;;16.30;75.80;;;;;;10407397;28;20417;-57
2023/11/09 05:56:48;;;;;;;5.30;0.65;;;16.60;74.80;;;;;;10406666;28;20064;-57
2023/11/09 06:01:49;;;;;;;4.18;0.85;;;16.80;74.10;;;;;;10407083;28;20035;-58
2023/11/09 06:06:49;;;;;;;1.60;0.60;;;17.00;73.30;;;;;;10407273;28;20091;-55
2023/11/09 06:11:51;;;;;;;2.72;1.30;;;17.20;73.10;;;;;;10406502;28;20025;-56
2023/11/09 06:16:52;;;;;;;9.00;0.93;;;17.50;72.60;;;;;;10406289;28;20040;-57
2023/11/09 06:21:53;;;;;;;7.60;0.80;;;17.50;73.40;;;;;;10406617;28;20055;-58
2023/11/09 06:26:55;;;;;;;8.68;1.83;;;17.60;73.30;;;;;;10405640;28;20489;-56
2023/11/09 06:31:57;;;;;;;5.70;1.30;;;17.70;72.70;;;;;;10419166;28;20049;-58
2023/11/09 06:36:58;;;;;;;8.38;1.23;;;17.80;72.70;;;;;;10405349;28;20482;-57
2023/11/09 06:41:59;;;;;;;7.35;1.27;;;17.80;72.60;;;;;;10404159;28;20029;-57
2023/11/09 06:46:59;;;;;;;4.68;0.75;;;17.90;72.00;;;;;;10404897;28;20048;-57
2023/11/09 06:52:01;;;;;;;16.45;1.40;;;17.90;72.20;;;;;;10405525;28;20399;-58
2023/11/09 06:57:03;;;;;;;12.63;1.50;;;17.90;72.10;;;;;;10405277;28;20037;-57
2023/11/09 07:02:04;;;;;;;10.15;1.48;;;17.90;72.30;;;;;;10404823;28;20040;-57
2023/11/09 07:07:06;;;;;;;5.75;1.65;;;17.80;72.50;;;;;;10403440;28;20120;-57
2023/11/09 07:12:07;;;;;;;5.78;1.08;;;17.60;72.80;;;;;;10406587;28;20103;-58
2023/11/09 07:17:08;;;;;;;9.85;1.60;;;17.60;73.30;;;;;;10405298;28;20033;-58
2023/11/09 07:22:10;;;;;;;11.27;2.83;;;17.40;73.50;;;;;;10407366;28;20037;-58
2023/11/09 07:27:11;;;;;;;6.20;1.65;;;17.40;73.50;;;;;;10414169;28;20045;-58
2023/11/09 07:32:12;;;;;;;10.10;1.45;;;17.20;73.70;;;;;;10427262;28;20045;-58
2023/11/09 07:37:13;;;;;;;13.60;1.45;;;17.20;74.00;;;;;;10412794;28;20037;-58
2023/11/09 07:42:14;;;;;;;5.32;1.02;;;17.10;74.10;;;;;;10413375;28;20079;-58
2023/11/09 07:47:15;;;;;;;9.10;3.00;;;17.00;74.30;;;;;;10413679;28;20021;-58
2023/11/09 07:52:16;;;;;;;2.50;0.80;;;17.00;74.50;;;;;;10413098;28;20086;-58
2023/11/09 07:57:16;;;;;;;5.13;1.25;;;16.90;74.60;;;;;;10413497;28;20031;-58
2023/11/09 08:02:19;;;;;;;3.05;0.93;;;16.90;74.80;;;;;;10414001;28;20025;-59
2023/11/09 08:07:21;;;;;;;3.83;1.00;;;16.80;75.00;;;;;;10413099;28;20026;-59
2023/11/09 08:12:23;;;;;;;4.10;1.00;;;16.70;75.00;;;;;;10413360;28;20485;-57
2023/11/09 08:17:24;;;;;;;2.80;0.80;;;16.70;75.10;;;;;;10412538;28;20021;-58
2023/11/09 08:22:25;;;;;;;6.45;0.95;;;16.70;75.20;;;;;;10412957;28;20041;-56
2023/11/09 08:27:26;;;;;;;3.17;1.10;;;16.60;75.20;;;;;;10411891;28;20025;-58
2023/11/09 08:32:26;;;;;;;4.57;0.90;;;16.60;75.40;;;;;;10425403;28;20492;-56
2023/11/09 08:37:27;;;;;;;1.92;0.80;;;16.60;75.50;;;;;;10411488;28;20507;-58
2023/11/09 08:42:33;;;;;;;5.57;1.05;;;16.60;75.50;;;;;;10412119;28;20060;-58
2023/11/09 08:47:34;;;;;;;4.03;1.02;;;16.50;75.50;;;;;;10412324;28;20033;-58
2023/11/09 08:52:38;;;;;;;3.33;0.90;;;16.50;75.50;;;;;;10411833;28;20033;-59
2023/11/09 08:57:40;;;;;;;3.92;1.02;;;16.50;75.60;;;;;;10411223;28;20044;-58
2023/11/09 09:02:49;;;;;;;5.93;3.05;;;16.40;75.60;;;;;;10411465;28;20439;-58
2023/11/09 09:07:53;;;;;;;5.50;0.90;;;16.40;75.70;;;;;;10410816;28;20551;-58
2023/11/09 09:12:59;;;;;;;2.90;0.70;;;16.40;75.70;;;;;;10410777;28;20108;-58
2023/11/09 09:18:00;;;;;;;4.57;1.13;;;16.40;75.80;;;;;;10410285;28;20036;-59
2023/11/09 09:23:04;;;;;;;3.33;1.23;;;16.40;76.30;;;;;;10411162;28;20037;-58
2023/11/09 09:28:09;;;;;;;3.67;1.30;;;16.30;75.90;;;;;;10408837;28;20045;-59
2023/11/09 09:33:10;;;;;;;2.42;0.82;;;16.30;75.70;;;;;;10411017;28;20770;-58
2023/11/09 09:38:11;;;;;;;2.90;1.00;;;16.30;75.70;;;;;;10410013;28;20041;-58
2023/11/09 09:43:12;;;;;;;1.85;0.73;;;16.30;75.80;;;;;;10409221;28;20031;-58
2023/11/09 09:48:13;;;;;;;3.30;0.88;;;16.30;76.30;;;;;;10407505;28;20041;-58
2023/11/09 09:53:20;;;;;;;2.42;1.10;;;16.30;76.20;;;;;;10409287;28;20030;-58
2023/11/09 09:58:21;;;;;;;2.47;1.20;;;16.30;76.40;;;;;;10407959;28;20041;-58
2023/11/09 10:03:25;;;;;;;2.10;1.17;;;16.30;76.50;;;;;;10409113;28;20017;-58
2023/11/09 10:08:26;;;;;;;2.28;0.95;;;16.30;76.50;;;;;;10406457;28;20487;-59
2023/11/09 10:13:30;;;;;;;2.05;0.90;;;16.30;76.60;;;;;;10407890;28;20024;-58
2023/11/09 10:18:33;;;;;;;2.50;1.25;;;16.40;76.60;;;;;;10408555;28;20100;-58
2023/11/09 10:23:33;;;;;;;4.13;1.15;;;16.40;76.50;;;;;;10408382;28;20041;-58
2023/11/09 10:28:36;;;;;;;3.15;0.98;;;16.40;76.50;;;;;;10408173;28;20098;-56
2023/11/09 10:33:38;;;;;;;3.85;1.10;;;16.40;76.50;;;;;;10408062;28;20393;-57
2023/11/09 10:38:42;;;;;;;1.75;1.02;;;16.40;76.40;;;;;;10407997;28;20033;-58
2023/11/09 10:43:45;;;;;;;1.83;0.80;;;16.40;76.50;;;;;;10408039;28;20036;-58
2023/11/09 10:48:50;;;;;;;2.72;0.77;;;16.50;76.40;;;;;;10406164;28;20034;-58
2023/11/09 10:53:52;;;;;;;4.45;1.02;;;16.50;76.40;;;;;;10406362;28;20029;-58
2023/11/09 10:58:56;;;;;;;3.58;1.20;;;16.50;76.30;;;;;;10411524;28;20036;-59
2023/11/09 11:03:59;;;;;;;3.70;0.90;;;16.50;76.20;;;;;;10414578;28;20029;-57
2023/11/09 11:09:18;;;;;;;5.15;0.90;;;16.50;76.20;;;;;;10414075;28;20029;-58
2023/11/09 11:14:23;;;;;;;4.40;0.95;;;16.60;76.20;;;;;;10415493;28;20026;-58
2023/11/09 11:19:54;;;;;;;4.40;1.45;;;16.60;76.10;;;;;;10413556;28;20083;-57
2023/11/09 11:25:34;;;;;;;2.40;0.95;;;16.60;76.00;;;;;;10415440;28;20741;-58
2023/11/09 11:30:36;;;;;;;2.63;0.90;;;16.60;75.90;;;;;;10425940;28;20065;-58
2023/11/09 11:35:46;;;;;;;2.78;0.95;;;16.60;76.00;;;;;;10414307;28;20113;-59
2023/11/09 11:41:01;;;;;;;2.25;0.90;;;16.60;75.90;;;;;;10414936;28;20033;-59
2023/11/09 11:46:14;;;;;;;3.42;0.93;;;16.60;75.90;;;;;;10413918;28;20161;-59
2023/11/09 11:51:15;;;;;;;3.72;1.65;;;16.60;75.90;;;;;;10413592;28;20033;-58
2023/11/09 11:56:24;;;;;;;2.00;0.98;;;16.60;75.90;;;;;;10414118;28;20441;-58
2023/11/09 12:01:28;;;;;;;1.30;0.80;;;16.60;75.90;;;;;;10413355;28;20108;-58
2023/11/09 12:06:30;;;;;;;2.05;0.80;;;16.50;75.90;;;;;;10413157;28;20105;-58
2023/11/09 12:11:33;;;;;;;1.73;0.95;;;16.60;76.50;;;;;;10411938;28;20051;-58
2023/11/09 12:16:36;;;;;;;2.30;0.80;;;16.50;76.00;;;;;;10412102;28;20104;-58
2023/11/09 12:21:37;;;;;;;2.42;1.00;;;16.50;75.90;;;;;;10412203;28;20716;-58
2023/11/09 12:26:39;;;;;;;2.58;0.73;;;16.50;76.00;;;;;;10413052;28;20473;-57
2023/11/09 12:31:40;;;;;;;1.88;0.75;;;16.50;76.10;;;;;;10425106;28;20383;-58
2023/11/09 12:36:51;;;;;;;2.08;1.10;;;16.40;76.10;;;;;;10411464;28;20381;-58
2023/11/09 12:41:52;;;;;;;1.63;1.20;;;16.40;76.10;;;;;;10411709;28;20388;-58
2023/11/09 12:46:56;;;;;;;2.63;0.80;;;16.40;76.10;;;;;;10411988;28;20033;-58
2023/11/09 12:51:59;;;;;;;2.13;1.02;;;16.40;76.10;;;;;;10411895;28;20492;-58
2023/11/09 12:57:05;;;;;;;2.80;1.27;;;16.40;76.10;;;;;;10411630;28;20025;-58
2023/11/09 13:02:14;;;;;;;3.35;1.10;;;16.40;76.10;;;;;;10411119;28;20559;-58
2023/11/09 13:07:15;;;;;;;1.85;0.80;;;16.30;76.00;;;;;;10411334;28;20507;-58
2023/11/09 13:12:28;;;;;;;1.67;0.70;;;16.30;76.00;;;;;;10409210;28;20030;-58
2023/11/09 13:17:29;;;;;;;2.63;1.33;;;16.30;76.00;;;;;;10410582;28;20064;-58
2023/11/09 13:22:37;;;;;;;2.55;0.75;;;16.30;76.00;;;;;;10410219;28;20425;-59
2023/11/09 13:27:38;;;;;;;2.47;0.95;;;16.30;76.00;;;;;;10410361;28;20037;-58
2023/11/09 13:32:39;;;;;;;2.63;1.20;;;16.30;76.00;;;;;;10409832;28;20432;-57
2023/11/09 13:37:40;;;;;;;1.95;0.77;;;16.30;76.00;;;;;;10409713;28;20101;-58
2023/11/09 13:42:41;;;;;;;1.98;0.80;;;16.20;75.90;;;;;;10409762;28;20036;-58
2023/11/09 13:47:43;;;;;;;1.65;0.68;;;16.30;76.00;;;;;;10409295;28;20032;-59
2023/11/09 13:52:50;;;;;;;2.88;0.98;;;16.20;75.90;;;;;;10409048;28;20125;-58
2023/11/09 13:57:50;;;;;;;2.28;0.73;;;16.20;75.90;;;;;;10408933;28;20033;-57
2023/11/09 14:02:51;;;;;;;2.28;0.80;;;16.20;76.00;;;;;;10408243;28;20034;-58
2023/11/09 14:07:54;;;;;;;3.03;0.70;;;16.20;76.00;;;;;;10408725;28;20461;-58
2023/11/09 14:13:28;;;;;;;2.08;0.70;;;16.20;76.10;;;;;;10408480;28;20025;-59
2023/11/09 14:23:26;;;;;;;1.88;0.70;;;16.20;75.90;;;;;;10407784;28;20357;-58
2023/11/09 14:28:28;;;;;;;2.30;0.80;;;16.20;75.90;;;;;;10408980;28;20038;-58
2023/11/09 14:33:30;;;;;;;2.17;0.88;;;16.20;76.00;;;;;;10419193;28;20042;-58
2023/11/09 14:38:32;;;;;;;2.40;0.80;;;16.20;76.00;;;;;;10408264;28;20029;-58
2023/11/09 14:43:34;;;;;;;2.85;0.82;;;16.10;75.90;;;;;;10407520;28;20101;-59
2023/11/09 14:48:38;;;;;;;1.95;0.90;;;16.20;75.90;;;;;;10407301;28;20037;-59
2023/11/09 14:53:39;;;;;;;1.83;0.65;;;16.20;75.90;;;;;;10407344;28;20129;-58
2023/11/09 14:58:43;;;;;;;2.63;1.13;;;16.10;75.80;;;;;;10407829;28;20030;-59
2023/11/09 15:03:45;;;;;;;2.70;0.90;;;16.10;75.80;;;;;;10406753;28;20033;-58
2023/11/09 15:08:45;;;;;;;3.17;1.10;;;16.10;75.70;;;;;;10405554;28;20088;-59
2023/11/09 15:13:46;;;;;;;1.90;0.70;;;16.10;75.70;;;;;;10406959;28;20026;-58
2023/11/09 15:18:47;;;;;;;2.22;0.82;;;16.10;75.60;;;;;;10408426;28;20037;-56
2023/11/09 15:23:48;;;;;;;2.10;1.13;;;16.10;75.80;;;;;;10414307;28;20029;-58
2023/11/09 15:28:49;;;;;;;2.53;0.63;;;16.20;75.30;;;;;;10414043;28;20036;-59
2023/11/09 15:33:49;;;;;;;2.20;0.68;;;16.40;74.70;;;;;;10406491;28;20369;-58
2023/11/09 15:38:50;;;;;;;1.63;0.60;;;16.60;74.20;;;;;;10407133;28;20457;-59
2023/11/09 15:43:53;;;;;;;3.03;0.90;;;16.80;73.20;;;;;;10407929;28;20052;-59
2023/11/09 15:48:55;;;;;;;2.13;0.60;;;17.10;72.20;;;;;;10414337;28;20028;-58
2023/11/09 15:53:56;;;;;;;3.33;0.80;;;17.30;71.70;;;;;;10413429;28;20127;-59
2023/11/09 15:58:57;;;;;;;1.77;0.90;;;17.40;71.60;;;;;;10412400;28;20025;-58
2023/11/09 16:03:59;;;;;;;2.42;0.82;;;17.30;72.20;;;;;;10413364;28;20036;-57
2023/11/09 16:09:00;;;;;;;1.75;0.95;;;17.30;72.00;;;;;;10409482;28;20033;-57
2023/11/09 16:14:02;;;;;;;5.55;1.45;;;17.20;72.60;;;;;;10428628;28;20378;-59
2023/11/09 16:19:04;;;;;;;1.42;0.63;;;17.30;73.00;;;;;;10415567;28;20096;-57
2023/11/09 16:24:08;;;;;;;2.10;0.90;;;17.40;72.70;;;;;;10412122;28;20037;-59
2023/11/09 16:29:12;;;;;;;2.53;0.90;;;17.40;72.60;;;;;;10427060;28;20042;-57
2023/11/09 16:34:14;;;;;;;1.55;1.08;;;17.40;72.60;;;;;;10424919;28;20033;-58
2023/11/09 16:39:16;;;;;;;2.88;1.25;;;17.20;73.00;;;;;;10414045;28;20033;-58
2023/11/09 16:44:17;;;;;;;3.72;0.80;;;17.10;73.10;;;;;;10410042;28;20215;-57
2023/11/09 16:49:18;;;;;;;3.22;1.30;;;17.10;73.00;;;;;;10410246;28;20026;-58
2023/11/09 16:54:20;;;;;;;1.45;0.80;;;17.10;72.90;;;;;;10408997;28;20037;-57
2023/11/09 16:59:21;;;;;;;2.60;0.77;;;17.10;72.70;;;;;;10409900;28;20400;-56
2023/11/09 17:04:21;;;;;;;4.38;1.20;;;17.00;72.80;;;;;;10406602;28;20033;-57
2023/11/09 17:09:22;;;;;;;16.92;2.97;;;17.10;73.40;;;;;;10409558;28;20114;-59
2023/11/09 17:14:23;;;;;;;29.75;3.50;;;17.30;73.00;;;;;;10407973;28;20029;-55
2023/11/09 17:19:24;;;;;;;22.33;4.18;;;17.70;72.90;;;;;;10415941;28;20037;-58
2023/11/09 17:24:26;;;;;;;10.35;3.35;;;18.10;73.50;;;;;;10415709;28;20041;-57
2023/11/09 17:29:26;;;;;;;20.02;3.78;;;18.30;72.60;;;;;;10416947;28;20078;-58
2023/11/09 17:34:28;;;;;;;22.95;3.67;;;18.30;73.60;;;;;;10411877;28;20479;-59
2023/11/09 17:39:29;;;;;;;21.05;4.35;;;18.20;74.10;;;;;;10408323;28;20687;-59
2023/11/09 17:44:30;;;;;;;14.50;2.88;;;18.10;74.50;;;;;;10407699;28;20472;-57
2023/11/09 17:49:31;;;;;;;14.52;3.50;;;18.00;74.40;;;;;;10407207;28;20080;-55
2023/11/09 17:54:31;;;;;;;25.55;5.03;;;18.00;74.50;;;;;;10407881;28;20029;-57
2023/11/09 17:59:32;;;;;;;18.00;4.45;;;18.00;74.90;;;;;;10407276;28;20186;-59
2023/11/09 18:04:33;;;;;;;17.10;2.95;;;17.90;74.10;;;;;;10407111;28;20033;-60
2023/11/09 18:09:34;;;;;;;19.20;2.83;;;17.90;74.20;;;;;;10421957;28;20397;-59
2023/11/09 18:14:35;;;;;;;13.57;2.88;;;17.80;74.00;;;;;;10411960;28;20041;-58
2023/11/09 18:19:36;;;;;;;14.75;2.63;;;17.80;74.00;;;;;;10407495;28;20624;-60
2023/11/09 18:24:38;;;;;;;23.55;3.78;;;17.70;74.10;;;;;;10406223;28;20037;-58
2023/11/09 18:29:38;;;;;;;18.40;3.28;;;17.70;74.70;;;;;;10404592;28;20049;-59
2023/11/09 18:34:39;;;;;;;13.65;2.25;;;17.60;74.20;;;;;;10408746;28;20477;-59
2023/11/09 18:39:40;;;;;;;12.13;1.83;;;17.50;74.20;;;;;;10408524;28;20035;-58
2023/11/09 18:44:42;;;;;;;6.75;2.13;;;17.40;74.30;;;;;;10389830;28;20038;-58
2023/11/09 18:49:42;;;;;;;10.15;1.20;;;17.40;74.50;;;;;;10404894;28;20435;-57
2023/11/09 18:54:43;;;;;;;6.20;1.75;;;17.40;74.60;;;;;;10408135;28;20017;-59
2023/11/09 18:59:44;;;;;;;8.80;1.83;;;17.30;74.70;;;;;;10407874;28;20034;-59
2023/11/09 19:04:45;;;;;;;7.25;1.75;;;17.20;74.90;;;;;;10408131;28;20564;-59
2023/11/09 19:09:47;;;;;;;10.60;1.75;;;17.10;75.00;;;;;;10406942;28;20037;-57
2023/11/09 19:14:48;;;;;;;7.50;1.38;;;17.10;75.10;;;;;;10399464;28;20492;-58
2023/11/09 19:19:49;;;;;;;11.90;2.03;;;17.10;75.20;;;;;;10408655;28;20036;-58
2023/11/09 19:24:50;;;;;;;7.60;1.50;;;17.00;75.20;;;;;;10412031;28;20017;-58
2023/11/09 19:29:50;;;;;;;8.88;2.28;;;17.00;75.30;;;;;;10415638;28;20061;-56
2023/11/09 19:34:52;;;;;;;6.45;1.67;;;17.00;75.30;;;;;;10411738;28;20116;-58
2023/11/09 19:39:52;;;;;;;4.75;1.38;;;16.90;75.40;;;;;;10411733;28;20392;-57
2023/11/09 19:44:53;;;;;;;6.15;1.58;;;16.90;75.60;;;;;;10411386;28;20032;-57
2023/11/09 19:49:56;;;;;;;9.45;1.42;;;16.90;75.60;;;;;;10410821;28;20043;-57
2023/11/09 19:54:57;;;;;;;6.72;1.38;;;16.80;75.70;;;;;;10403638;28;20078;-59
2023/11/09 19:59:58;;;;;;;5.63;1.70;;;16.80;76.00;;;;;;10413180;28;20034;-58
2023/11/09 20:04:58;;;;;;;6.43;2.80;;;16.80;75.80;;;;;;10407483;28;20475;-59
2023/11/09 20:09:59;;;;;;;5.28;1.50;;;16.80;75.90;;;;;;10408821;28;20021;-58
2023/11/09 20:15:00;;;;;;;9.25;1.27;;;16.70;76.30;;;;;;10413818;28;20017;-58
2023/11/09 20:20:02;;;;;;;6.25;0.90;;;16.60;76.70;;;;;;10408385;28;20033;-57
2023/11/09 20:25:03;;;;;;;7.55;1.42;;;16.60;76.80;;;;;;10410816;28;20037;-58
2023/11/09 20:30:11;;;;;;;8.00;1.50;;;16.60;76.20;;;;;;10411784;28;20145;-56
2023/11/09 20:35:12;;;;;;;3.22;0.95;;;16.60;76.30;;;;;;10426387;28;20032;-57
2023/11/09 20:40:15;;;;;;;4.18;1.75;;;16.60;76.40;;;;;;10426725;28;20124;-57
2023/11/09 20:45:17;;;;;;;2.47;0.90;;;16.50;76.40;;;;;;10422585;28;20136;-57
2023/11/09 20:50:17;;;;;;;4.75;1.15;;;16.50;76.40;;;;;;10410317;28;20030;-56
2023/11/09 20:55:22;;;;;;;3.63;1.35;;;16.50;76.40;;;;;;10411558;28;20033;-58
2023/11/09 21:00:28;;;;;;;2.40;1.02;;;16.40;76.40;;;;;;10412479;28;20184;-57
2023/11/09 21:05:29;;;;;;;4.10;0.90;;;16.40;76.40;;;;;;10412756;28;20369;-58
2023/11/09 21:10:31;;;;;;;3.47;0.90;;;16.40;76.40;;;;;;10411853;28;20026;-58
2023/11/09 21:15:32;;;;;;;4.13;1.45;;;16.30;76.30;;;;;;10412069;28;20087;-59
2023/11/09 21:20:33;;;;;;;1.88;1.00;;;16.30;76.30;;;;;;10410232;28;20073;-58
2023/11/09 21:25:34;;;;;;;4.55;0.93;;;16.30;76.40;;;;;;10411822;28;20037;-58
2023/11/09 21:30:34;;;;;;;4.05;1.30;;;16.30;76.30;;;;;;10411468;28;20037;-58
2023/11/09 21:35:35;;;;;;;3.00;0.82;;;16.30;76.30;;;;;;10411506;28;20029;-58
2023/11/09 21:40:37;;;;;;;1.58;0.95;;;16.20;76.10;;;;;;10410322;28;20091;-58
2023/11/09 21:45:38;;;;;;;2.65;1.35;;;16.30;76.20;;;;;;10411161;28;20033;-58
2023/11/09 21:50:38;;;;;;;3.88;1.20;;;16.20;76.10;;;;;;10410449;28;20568;-58
2023/11/09 21:55:39;;;;;;;1.92;0.80;;;16.20;76.10;;;;;;10410829;28;20100;-58
2023/11/09 22:00:40;;;;;;;3.60;0.85;;;16.20;76.10;;;;;;10410183;28;20069;-58
2023/11/09 22:05:41;;;;;;;2.33;1.23;;;16.20;76.00;;;;;;10410519;28;20022;-58
2023/11/09 22:10:42;;;;;;;1.70;1.55;;;16.20;76.10;;;;;;10409642;28;20037;-58
2023/11/09 22:15:42;;;;;;;2.28;1.02;;;16.20;76.10;;;;;;10410003;28;20021;-58
2023/11/09 22:20:43;;;;;;;2.05;1.10;;;16.20;76.00;;;;;;10409236;28;20030;-58
2023/11/09 22:25:44;;;;;;;2.63;1.00;;;16.10;76.00;;;;;;10409706;28;20417;-57
2023/11/09 22:30:44;;;;;;;2.15;1.05;;;16.10;75.90;;;;;;10409630;28;20052;-56
2023/11/09 22:35:46;;;;;;;2.33;1.05;;;16.10;76.00;;;;;;10409585;28;20097;-58
2023/11/09 22:40:47;;;;;;;4.10;1.00;;;16.10;76.00;;;;;;10408844;28;20035;-58
2023/11/09 22:45:48;;;;;;;2.83;1.00;;;16.10;76.00;;;;;;10409505;28;20029;-57
2023/11/09 22:50:49;;;;;;;6.22;1.10;;;16.10;76.00;;;;;;10408606;28;20032;-58
2023/11/09 22:55:49;;;;;;;3.35;1.27;;;16.10;76.00;;;;;;10420847;28;20026;-58
2023/11/09 23:00:50;;;;;;;3.83;1.00;;;16.10;75.90;;;;;;10422040;28;20029;-57
2023/11/09 23:05:51;;;;;;;2.40;1.10;;;16.00;76.00;;;;;;10422247;28;20059;-58
2023/11/09 23:10:52;;;;;;;2.45;0.88;;;16.00;76.00;;;;;;10421711;28;20029;-57
2023/11/09 23:15:52;;;;;;;4.60;0.93;;;16.00;76.10;;;;;;10422174;28;20637;-58
2023/11/09 23:20:53;;;;;;;1.23;0.65;;;16.00;76.00;;;;;;10421964;28;20033;-58
2023/11/09 23:25:54;;;;;;;2.88;0.98;;;16.00;76.00;;;;;;10421590;28;20017;-58
2023/11/09 23:30:55;;;;;;;1.27;0.60;;;16.00;75.90;;;;;;10421741;28;20041;-58
2023/11/09 23:35:55;;;;;;;1.73;0.82;;;16.00;75.90;;;;;;10422089;28;20030;-58
2023/11/09 23:40:57;;;;;;;2.30;0.55;;;16.00;75.90;;;;;;10421313;28;20648;-58
2023/11/09 23:45:58;;;;;;;1.83;0.60;;;16.00;75.90;;;;;;10421719;28;20037;-58
2023/11/09 23:50:59;;;;;;;1.13;0.45;;;15.90;75.80;;;;;;10420987;28;20080;-56
2023/11/09 23:56:00;;;;;;;1.90;0.60;;;15.90;75.90;;;;;;10421563;28;20396;-56
